Time;durP1;ratioP1;P1;durP2;ratioP2;P2;SDS_P1;SDS_P2;PMS_P1;PMS_P2;Temp;Humidity;BMP_temperature;BMP_pressure;BME280_temperature;BME280_humidity;BME280_pressure;Samples;Min_cycle;Max_cycle;Signal;HPM_P1;HPM_P2
2022/04/26 03:38:48;;;;;;;1.17;0.93;;;;;;;;;;10425313;28;19936;-55
2022/04/26 03:43:48;;;;;;;1.45;1.02;;;;;;;;;;10433670;28;20021;-55
2022/04/26 03:48:49;;;;;;;1.20;1.10;;;;;;;;;;10438534;28;20449;-54
2022/04/26 03:53:50;;;;;;;2.47;1.30;;;;;;;;;;10424562;28;20247;-54
2022/04/26 03:58:50;;;;;;;2.50;1.42;;;;;;;;;;10436098;28;20107;-57
2022/04/26 04:03:51;;;;;;;1.63;1.25;;;;;;;;;;10441570;28;20044;-57
2022/04/26 04:08:51;;;;;;;1.58;1.10;;;;;;;;;;10432264;28;20464;-57
2022/04/26 04:13:52;;;;;;;1.85;1.00;;;;;;;;;;10429854;28;20385;-57
2022/04/26 04:24:15;;;;;;;2.85;1.15;;;;;;;;;;10433302;28;20060;-57
2022/04/26 04:29:16;;;;;;;2.67;1.42;;;;;;;;;;10422880;28;20018;-58
2022/04/26 04:34:16;;;;;;;1.45;1.20;;;;;;;;;;10427363;28;20472;-58
2022/04/26 04:39:20;;;;;;;3.25;1.40;;;;;;;;;;10425887;28;20049;-58
2022/04/26 04:44:21;;;;;;;1.33;1.00;;;;;;;;;;10429941;28;20098;-58
2022/04/26 04:49:23;;;;;;;1.67;1.23;;;;;;;;;;10433251;28;20033;-58
2022/04/26 04:54:23;;;;;;;1.90;1.50;;;;;;;;;;10427922;28;20070;-58
2022/04/26 04:59:26;;;;;;;1.00;1.00;;;;;;;;;;10432722;28;20048;-57
2022/04/26 05:04:27;;;;;;;1.40;1.15;;;;;;;;;;10432628;28;20128;-57
2022/04/26 05:09:27;;;;;;;1.25;1.15;;;;;;;;;;10428667;28;20025;-57
2022/04/26 05:14:28;;;;;;;0.95;0.95;;;;;;;;;;10432484;28;20041;-57
2022/04/26 05:19:28;;;;;;;1.08;1.02;;;;;;;;;;10429930;28;20037;-58
2022/04/26 05:29:48;;;;;;;7.28;1.30;;;;;;;;;;10429349;28;20029;-57
2022/04/26 05:34:59;;;;;;;7.03;1.10;;;;;;;;;;10423571;28;20033;-55
2022/04/26 05:40:02;;;;;;;2.88;1.00;;;;;;;;;;10410230;28;20480;-56
2022/04/26 05:45:03;;;;;;;1.50;1.05;;;;;;;;;;10427696;28;20167;-57
2022/04/26 05:50:04;;;;;;;2.38;1.25;;;;;;;;;;10418031;28;20377;-56
2022/04/26 05:55:07;;;;;;;4.78;1.15;;;;;;;;;;10441146;28;20029;-58
2022/04/26 06:00:12;;;;;;;4.85;1.40;;;;;;;;;;10420658;28;20056;-58
2022/04/26 06:05:12;;;;;;;1.33;1.23;;;;;;;;;;10427268;28;20040;-57
2022/04/26 06:10:13;;;;;;;2.30;1.00;;;;;;;;;;10420507;28;20047;-57
2022/04/26 06:15:15;;;;;;;2.75;0.90;;;;;;;;;;10423554;28;20056;-57
2022/04/26 06:20:16;;;;;;;3.35;1.13;;;;;;;;;;10419013;28;20060;-58
2022/04/26 06:25:17;;;;;;;3.78;1.10;;;;;;;;;;10440745;28;20053;-57
2022/04/26 06:30:18;;;;;;;1.75;1.02;;;;;;;;;;10429654;28;20041;-57
2022/04/26 06:35:18;;;;;;;1.38;1.15;;;;;;;;;;10421230;28;20025;-57
2022/04/26 06:40:19;;;;;;;1.30;1.10;;;;;;;;;;10436715;28;20036;-57
2022/04/26 06:45:19;;;;;;;1.02;0.80;;;;;;;;;;10436615;28;20033;-58
2022/04/26 06:50:21;;;;;;;0.95;0.88;;;;;;;;;;10433593;28;20045;-58
2022/04/26 06:55:22;;;;;;;2.25;1.00;;;;;;;;;;10425975;28;20068;-58
2022/04/26 07:00:23;;;;;;;1.92;1.10;;;;;;;;;;10416058;28;20056;-55
2022/04/26 07:05:24;;;;;;;1.10;1.00;;;;;;;;;;10416632;28;20031;-58
2022/04/26 07:10:28;;;;;;;3.70;1.20;;;;;;;;;;10416957;28;20029;-58
2022/04/26 07:15:29;;;;;;;0.82;0.80;;;;;;;;;;10429102;28;20061;-58
2022/04/26 07:20:30;;;;;;;1.00;1.00;;;;;;;;;;10427027;28;20041;-58
2022/04/26 07:25:30;;;;;;;4.30;1.30;;;;;;;;;;10427697;28;20029;-55
2022/04/26 07:30:34;;;;;;;3.10;0.90;;;;;;;;;;10424643;28;20021;-53
2022/04/26 07:35:35;;;;;;;1.65;1.02;;;;;;;;;;10420463;28;20045;-51
2022/04/26 07:40:35;;;;;;;1.33;0.88;;;;;;;;;;10424478;28;20041;-58
2022/04/26 07:45:38;;;;;;;1.92;0.90;;;;;;;;;;10443427;28;20103;-58
2022/04/26 07:50:38;;;;;;;1.17;1.00;;;;;;;;;;10433676;28;20048;-58
2022/04/26 07:55:39;;;;;;;1.95;1.00;;;;;;;;;;10433984;28;20472;-58
2022/04/26 08:00:39;;;;;;;4.28;1.10;;;;;;;;;;10433334;28;20461;-58
2022/04/26 08:05:40;;;;;;;0.90;0.80;;;;;;;;;;10428735;28;20033;-58
2022/04/26 08:10:41;;;;;;;4.72;1.05;;;;;;;;;;10439744;28;20037;-58
2022/04/26 08:15:42;;;;;;;1.27;0.98;;;;;;;;;;10442428;28;20088;-58
2022/04/26 08:20:44;;;;;;;1.42;1.10;;;;;;;;;;10447134;28;20098;-58
2022/04/26 08:31:24;;;;;;;1.73;1.10;;;;;;;;;;10243617;28;20121;-57
2022/04/26 08:36:25;;;;;;;2.88;0.90;;;;;;;;;;10236020;28;20061;-55
2022/04/26 08:41:26;;;;;;;4.10;1.10;;;;;;;;;;10242037;28;20045;-56
2022/04/26 08:50:59;;;;;;;8.15;1.33;;;;;;;;;;10227966;28;20487;-53
2022/04/26 08:51:47;;;;;;;5.53;1.10;;;;;;;;;;10229487;28;20067;-55
2022/04/26 08:56:48;;;;;;;1.13;1.00;;;;;;;;;;10229216;28;20051;-55
2022/04/26 09:01:49;;;;;;;1.92;1.20;;;;;;;;;;10375321;28;20071;-57
2022/04/26 09:06:50;;;;;;;0.98;0.98;;;;;;;;;;10425910;28;20033;-60
2022/04/26 09:12:00;;;;;;;1.77;1.02;;;;;;;;;;10438264;28;20033;-60
2022/04/26 09:17:11;;;;;;;8.55;1.48;;;;;;;;;;10426196;28;20040;-60
2022/04/26 09:22:18;;;;;;;3.67;1.08;;;;;;;;;;10435770;28;20123;-60
2022/04/26 09:27:18;;;;;;;5.18;1.55;;;;;;;;;;10433633;28;20033;-60
2022/04/26 09:32:19;;;;;;;1.90;1.58;;;;;;;;;;10443569;28;20040;-61
2022/04/26 09:37:20;;;;;;;6.20;1.15;;;;;;;;;;10444604;28;20413;-60
2022/04/26 09:42:31;;;;;;;8.23;1.40;;;;;;;;;;10447049;28;20120;-60
2022/04/26 09:47:37;;;;;;;2.13;1.20;;;;;;;;;;10438233;28;20029;-60
2022/04/26 09:52:38;;;;;;;6.72;1.25;;;;;;;;;;10445548;28;20510;-60
2022/04/26 09:57:39;;;;;;;6.30;1.40;;;;;;;;;;10441047;28;20520;-60
2022/04/26 10:02:55;;;;;;;1.33;1.23;;;;;;;;;;10441125;28;20200;-61
2022/04/26 10:07:57;;;;;;;2.50;1.13;;;;;;;;;;10424636;28;20229;-60
2022/04/26 10:18:31;;;;;;;7.00;1.33;;;;;;;;;;10447450;28;20049;-60
2022/04/26 10:23:50;;;;;;;2.97;1.67;;;;;;;;;;10415172;28;20037;-60
2022/04/26 10:29:00;;;;;;;3.20;1.30;;;;;;;;;;10439203;28;20479;-61
2022/04/26 10:34:03;;;;;;;2.60;1.10;;;;;;;;;;10434769;28;20056;-60
2022/04/26 10:39:09;;;;;;;4.95;1.30;;;;;;;;;;10435510;28;20109;-61
2022/04/26 10:44:13;;;;;;;2.80;1.35;;;;;;;;;;10431618;28;20468;-63
2022/04/26 10:49:25;;;;;;;3.95;1.30;;;;;;;;;;10446026;28;20029;-60
2022/04/26 10:54:55;;;;;;;2.80;1.30;;;;;;;;;;10446542;28;20029;-61
2022/04/26 11:00:33;;;;;;;1.58;1.02;;;;;;;;;;10451562;28;20052;-63
2022/04/26 11:05:35;;;;;;;3.10;1.50;;;;;;;;;;10442656;28;20041;-62
2022/04/26 11:16:12;;;;;;;1.80;1.13;;;;;;;;;;10427952;28;20041;-63
2022/04/26 11:21:13;;;;;;;6.00;1.50;;;;;;;;;;10419170;28;20025;-63
2022/04/26 11:31:40;;;;;;;8.05;1.48;;;;;;;;;;10420753;28;20393;-61
2022/04/26 11:36:41;;;;;;;6.22;1.30;;;;;;;;;;10418441;28;20045;-62
2022/04/26 11:41:48;;;;;;;4.10;1.67;;;;;;;;;;10437615;28;20040;-61
2022/04/26 11:46:59;;;;;;;3.78;1.30;;;;;;;;;;10422562;28;20175;-64
2022/04/26 11:52:00;;;;;;;3.22;1.40;;;;;;;;;;10409551;28;20018;-60
2022/04/26 11:57:01;;;;;;;4.85;1.60;;;;;;;;;;10434805;28;20053;-62
2022/04/26 12:02:02;;;;;;;3.03;1.20;;;;;;;;;;10412389;28;20512;-63
2022/04/26 12:07:03;;;;;;;7.00;1.52;;;;;;;;;;10428581;28;20037;-60
2022/04/26 12:12:05;;;;;;;1.95;1.20;;;;;;;;;;10442123;28;20037;-62
2022/04/26 12:17:22;;;;;;;3.63;1.40;;;;;;;;;;10427735;28;20239;-61
2022/04/26 12:22:26;;;;;;;4.65;1.50;;;;;;;;;;10427996;28;20484;-61
2022/04/26 12:27:27;;;;;;;6.13;1.83;;;;;;;;;;10411011;28;20036;-63
2022/04/26 12:32:28;;;;;;;7.15;1.40;;;;;;;;;;10417720;28;20064;-61
2022/04/26 12:37:34;;;;;;;11.63;1.40;;;;;;;;;;10412425;28;20132;-60
2022/04/26 12:42:40;;;;;;;2.60;1.50;;;;;;;;;;10427455;28;20038;-63
2022/04/26 12:53:23;;;;;;;3.08;1.40;;;;;;;;;;10416143;28;20029;-61
2022/04/26 12:58:48;;;;;;;5.75;1.08;;;;;;;;;;10418597;28;20702;-65
2022/04/26 13:03:49;;;;;;;2.88;1.13;;;;;;;;;;10425755;28;20033;-61
2022/04/26 13:08:51;;;;;;;4.40;1.27;;;;;;;;;;10425285;28;20034;-60
2022/04/26 13:13:51;;;;;;;2.22;1.10;;;;;;;;;;10432811;28;20410;-63
2022/04/26 13:18:52;;;;;;;4.03;1.70;;;;;;;;;;10437434;28;20036;-62
2022/04/26 13:23:57;;;;;;;19.70;1.48;;;;;;;;;;10424771;28;20037;-60
2022/04/26 13:28:58;;;;;;;4.55;1.77;;;;;;;;;;10434273;28;20136;-60
2022/04/26 13:33:59;;;;;;;4.05;1.50;;;;;;;;;;10433075;28;20033;-60
2022/04/26 13:39:01;;;;;;;7.65;1.92;;;;;;;;;;10430098;28;20040;-60
2022/04/26 13:44:02;;;;;;;3.75;1.50;;;;;;;;;;10442327;28;20029;-60
2022/04/26 13:49:03;;;;;;;6.05;1.65;;;;;;;;;;10448498;28;20056;-60
2022/04/26 13:54:04;;;;;;;2.60;1.50;;;;;;;;;;10435608;28;20033;-60
2022/04/26 13:59:05;;;;;;;4.80;1.70;;;;;;;;;;10441543;28;20049;-60
2022/04/26 14:04:06;;;;;;;3.08;1.42;;;;;;;;;;10436710;28;20029;-60
2022/04/26 14:09:06;;;;;;;4.32;1.45;;;;;;;;;;10441211;28;20037;-60
2022/04/26 14:24:48;;;;;;;6.05;1.10;;;;;;;;;;10407903;28;20068;-60
2022/04/26 14:29:48;;;;;;;1.80;1.35;;;;;;;;;;10427107;28;20041;-60
2022/04/26 14:34:49;;;;;;;8.52;1.50;;;;;;;;;;10432468;28;20029;-60
2022/04/26 14:39:51;;;;;;;8.93;1.88;;;;;;;;;;10416784;28;20473;-57
2022/04/26 14:44:51;;;;;;;2.17;1.23;;;;;;;;;;10418413;28;20058;-56
2022/04/26 14:49:58;;;;;;;6.20;2.08;;;;;;;;;;10427963;28;20052;-62
2022/04/26 14:55:01;;;;;;;5.10;1.35;;;;;;;;;;10425078;28;20038;-62
2022/04/26 15:00:06;;;;;;;5.95;1.40;;;;;;;;;;10440121;28;20789;-60
2022/04/26 15:05:09;;;;;;;5.78;1.50;;;;;;;;;;10424746;28;20041;-56
2022/04/26 15:10:10;;;;;;;19.85;2.00;;;;;;;;;;10436862;28;20037;-58
2022/04/26 15:20:29;;;;;;;18.85;1.92;;;;;;;;;;10432334;28;20033;-60
2022/04/26 15:25:32;;;;;;;12.13;1.70;;;;;;;;;;10433373;28;20380;-57
2022/04/26 15:30:32;;;;;;;12.85;2.20;;;;;;;;;;10426021;28;20033;-59
2022/04/26 15:35:33;;;;;;;11.02;1.65;;;;;;;;;;10417455;28;20059;-56
2022/04/26 15:40:34;;;;;;;10.32;1.80;;;;;;;;;;10412708;28;20067;-58
2022/04/26 15:45:36;;;;;;;9.77;1.85;;;;;;;;;;10406115;28;20033;-53
2022/04/26 15:50:40;;;;;;;15.40;2.22;;;;;;;;;;10424909;28;20123;-58
2022/04/26 15:55:40;;;;;;;8.13;2.33;;;;;;;;;;10417751;28;20064;-55
2022/04/26 16:00:41;;;;;;;8.55;2.00;;;;;;;;;;10418766;28;20044;-58
2022/04/26 16:05:42;;;;;;;6.93;1.60;;;;;;;;;;10404688;28;20457;-55
2022/04/26 16:21:22;;;;;;;5.45;1.73;;;;;;;;;;10432125;28;20029;-55
2022/04/26 16:26:24;;;;;;;5.07;1.48;;;;;;;;;;10418547;28;20076;-57
2022/04/26 16:31:28;;;;;;;4.65;1.77;;;;;;;;;;10428425;28;20024;-55
2022/04/26 16:36:29;;;;;;;6.07;1.42;;;;;;;;;;10428978;28;20040;-57
2022/04/26 16:41:30;;;;;;;4.03;1.45;;;;;;;;;;10433964;28;20411;-55
2022/04/26 16:46:32;;;;;;;5.63;1.70;;;;;;;;;;10437745;28;20027;-55
2022/04/26 16:51:34;;;;;;;8.23;1.50;;;;;;;;;;10425160;28;20021;-54
2022/04/26 16:56:35;;;;;;;4.20;1.50;;;;;;;;;;10414367;28;20488;-55
2022/04/26 17:01:36;;;;;;;8.23;1.83;;;;;;;;;;10413009;28;20037;-50
2022/04/26 17:06:37;;;;;;;5.32;1.67;;;;;;;;;;10418836;28;20039;-52
2022/04/26 17:11:43;;;;;;;3.13;1.70;;;;;;;;;;10437315;28;20032;-50
2022/04/26 17:16:47;;;;;;;5.43;1.48;;;;;;;;;;10426628;28;20029;-63
2022/04/26 17:21:47;;;;;;;3.72;1.70;;;;;;;;;;10427097;28;20041;-53
2022/04/26 17:26:48;;;;;;;9.05;2.13;;;;;;;;;;10452932;28;20584;-54
2022/04/26 17:31:53;;;;;;;4.18;1.65;;;;;;;;;;10434500;28;20033;-53
2022/04/26 17:36:54;;;;;;;3.05;1.67;;;;;;;;;;10432097;28;20037;-50
2022/04/26 17:41:55;;;;;;;6.18;2.08;;;;;;;;;;10426882;28;20077;-51
2022/04/26 17:46:55;;;;;;;2.10;1.90;;;;;;;;;;10420588;28;20051;-50
2022/04/26 17:51:56;;;;;;;2.95;2.05;;;;;;;;;;10438137;28;20021;-53
2022/04/26 17:56:56;;;;;;;3.95;2.15;;;;;;;;;;10434919;28;20049;-51
2022/04/26 18:01:57;;;;;;;4.80;2.28;;;;;;;;;;10433675;28;20036;-54
2022/04/26 18:06:58;;;;;;;4.38;2.17;;;;;;;;;;10410881;28;20033;-52
2022/04/26 18:11:58;;;;;;;9.95;2.38;;;;;;;;;;10430961;28;20083;-50
2022/04/26 18:16:59;;;;;;;13.75;2.97;;;;;;;;;;10439032;28;20461;-49
2022/04/26 18:21:59;;;;;;;12.10;3.15;;;;;;;;;;10422003;28;20036;-49
2022/04/26 18:27:00;;;;;;;9.38;2.83;;;;;;;;;;10439881;28;20269;-50
2022/04/26 18:32:01;;;;;;;15.88;3.53;;;;;;;;;;10422913;28;20453;-49
2022/04/26 18:37:02;;;;;;;17.13;3.83;;;;;;;;;;10428097;28;20029;-49
2022/04/26 18:42:03;;;;;;;11.88;3.20;;;;;;;;;;10430832;28;20428;-52
2022/04/26 18:47:04;;;;;;;18.27;2.97;;;;;;;;;;10437777;28;20133;-51
2022/04/26 18:52:05;;;;;;;20.75;3.38;;;;;;;;;;10427407;28;20037;-50
2022/04/26 18:57:05;;;;;;;10.77;3.15;;;;;;;;;;10436702;28;20495;-52
2022/04/26 19:02:06;;;;;;;8.05;2.70;;;;;;;;;;10435331;28;20043;-49
2022/04/26 19:07:06;;;;;;;11.40;2.70;;;;;;;;;;10427451;28;20033;-49
2022/04/26 19:12:18;;;;;;;10.23;2.50;;;;;;;;;;10436793;28;20033;-50
2022/04/26 19:17:20;;;;;;;7.88;2.90;;;;;;;;;;10430949;28;20461;-49
2022/04/26 19:22:21;;;;;;;7.60;2.63;;;;;;;;;;10427506;28;20072;-50
2022/04/26 19:27:21;;;;;;;8.60;2.90;;;;;;;;;;10434647;28;20045;-48
2022/04/26 19:32:22;;;;;;;8.77;2.13;;;;;;;;;;10432553;28;20037;-50
2022/04/26 19:37:22;;;;;;;3.25;1.90;;;;;;;;;;10434933;28;20108;-52
2022/04/26 19:42:23;;;;;;;7.00;2.70;;;;;;;;;;10426698;28;20064;-50
2022/04/26 19:47:24;;;;;;;8.40;2.33;;;;;;;;;;10433740;28;20036;-54
2022/04/26 19:52:24;;;;;;;6.32;2.15;;;;;;;;;;10429396;28;20025;-49
2022/04/26 19:57:25;;;;;;;7.07;2.60;;;;;;;;;;10433350;28;20069;-49
2022/04/26 20:02:27;;;;;;;6.43;2.20;;;;;;;;;;10433368;28;20036;-56
2022/04/26 20:07:27;;;;;;;5.97;1.98;;;;;;;;;;10427822;28;20029;-52
2022/04/26 20:12:28;;;;;;;4.22;2.20;;;;;;;;;;10431433;28;20504;-50
2022/04/26 20:17:29;;;;;;;5.45;2.13;;;;;;;;;;10419525;28;20286;-49
2022/04/26 20:22:31;;;;;;;4.13;2.00;;;;;;;;;;10427438;28;20287;-49
2022/04/26 20:32:52;;;;;;;6.53;2.42;;;;;;;;;;10429555;28;20041;-49
2022/04/26 20:37:53;;;;;;;4.85;1.85;;;;;;;;;;10427432;28;20147;-50
2022/04/26 20:42:57;;;;;;;14.32;2.20;;;;;;;;;;10434806;28;20107;-49
2022/04/26 20:47:58;;;;;;;5.18;1.80;;;;;;;;;;10435698;28;20033;-51
2022/04/26 20:52:58;;;;;;;12.77;2.38;;;;;;;;;;10426392;28;20561;-52
2022/04/26 20:57:59;;;;;;;6.93;2.15;;;;;;;;;;10434736;28;20554;-49
2022/04/26 21:03:01;;;;;;;5.55;1.70;;;;;;;;;;10430220;28;20043;-51
2022/04/26 21:08:02;;;;;;;4.93;2.00;;;;;;;;;;10426192;28;20065;-49
2022/04/26 21:18:22;;;;;;;4.38;1.75;;;;;;;;;;10425805;28;20038;-49
2022/04/26 21:23:23;;;;;;;4.75;2.00;;;;;;;;;;10435238;28;20557;-49
2022/04/26 21:28:24;;;;;;;7.30;1.90;;;;;;;;;;10431620;28;20021;-49
2022/04/26 21:33:25;;;;;;;4.72;2.00;;;;;;;;;;10434071;28;20033;-50
2022/04/26 21:38:25;;;;;;;4.82;1.90;;;;;;;;;;10433089;28;20087;-49
2022/04/26 21:43:26;;;;;;;5.95;1.73;;;;;;;;;;10439342;28;20455;-51
2022/04/26 21:48:27;;;;;;;3.00;2.03;;;;;;;;;;10443698;28;20033;-52
2022/04/26 21:53:28;;;;;;;2.92;1.55;;;;;;;;;;10446536;28;20029;-53
2022/04/26 21:58:28;;;;;;;3.30;1.70;;;;;;;;;;10433894;28;20389;-57
2022/04/26 22:03:29;;;;;;;6.75;1.60;;;;;;;;;;10420621;28;20041;-52
2022/04/26 22:08:30;;;;;;;4.30;1.70;;;;;;;;;;10419973;28;20029;-54
2022/04/26 22:13:31;;;;;;;2.25;1.73;;;;;;;;;;10427544;28;20048;-51
2022/04/26 22:18:31;;;;;;;6.13;2.05;;;;;;;;;;10454795;28;20037;-52
2022/04/26 22:23:32;;;;;;;3.55;1.70;;;;;;;;;;10447056;28;20037;-53
2022/04/26 22:28:32;;;;;;;2.22;1.52;;;;;;;;;;10429436;28;21726;-54
2022/04/26 22:33:33;;;;;;;6.45;2.28;;;;;;;;;;10438789;28;20052;-51
2022/04/26 22:38:34;;;;;;;5.93;1.80;;;;;;;;;;10427929;28;20038;-57
2022/04/26 22:43:34;;;;;;;6.70;2.28;;;;;;;;;;10433169;28;20042;-51
2022/04/26 22:48:35;;;;;;;3.58;2.00;;;;;;;;;;10428031;28;20102;-53
2022/04/26 22:53:38;;;;;;;5.65;2.10;;;;;;;;;;10433462;28;20061;-53
2022/04/26 22:58:39;;;;;;;5.32;1.95;;;;;;;;;;10433936;28;20049;-53
2022/04/26 23:03:39;;;;;;;4.45;2.30;;;;;;;;;;10437012;28;20040;-53
2022/04/26 23:08:40;;;;;;;5.65;2.05;;;;;;;;;;10438138;28;20048;-52
2022/04/26 23:13:41;;;;;;;2.70;1.80;;;;;;;;;;10441801;28;20021;-49
2022/04/26 23:18:41;;;;;;;8.48;1.92;;;;;;;;;;10426511;28;20029;-52
2022/04/26 23:23:42;;;;;;;6.50;2.13;;;;;;;;;;10435629;28;20481;-48
2022/04/26 23:28:42;;;;;;;9.30;1.83;;;;;;;;;;10431305;28;20507;-49
2022/04/26 23:39:02;;;;;;;6.55;2.40;;;;;;;;;;10428568;28;20564;-50
2022/04/26 23:44:03;;;;;;;4.93;1.73;;;;;;;;;;10424405;28;20108;-48
2022/04/26 23:49:04;;;;;;;6.07;2.22;;;;;;;;;;10431312;28;20033;-49
2022/04/26 23:54:04;;;;;;;4.15;2.00;;;;;;;;;;10429848;28;20107;-53
2022/04/26 23:59:05;;;;;;;8.63;2.30;;;;;;;;;;10431367;28;20404;-53
